This is the latest recevied weather packets stored in our database for station/object WC4PEM-1. If no packets are shown the sender has not sent any weather packets the latest 1 day(s).
| Time | Temp. | Humidity | Pressure | Rain* | Wind** | Luminosity | Snow |
|---|---|---|---|---|---|---|---|
| 1778088201 | 31.67° C | 47% | 1015.8 hPa | 0 mm | - | 773 W/m² | - |
| 1778087901 | 31.11° C | 47% | 1015.8 hPa | 0 mm | - | 947 W/m² | - |
| 1778087301 | 31.11° C | 46% | 1015.9 hPa | 0 mm | - | 902 W/m² | - |
| 1778086701 | 31.11° C | 46% | 1016 hPa | 0 mm | - | 981 W/m² | - |
| 1778086401 | 31.11° C | 48% | 1016.1 hPa | 0 mm | - | 954 W/m² | - |
| 1778086101 | 31.11° C | 49% | 1016.1 hPa | 0 mm | - | 844 W/m² | - |
| 1778085801 | 30.56° C | 50% | 1016.2 hPa | 0 mm | - | 693 W/m² | - |
| 1778085501 | 30.56° C | 51% | 1016.2 hPa | 0 mm | - | 817 W/m² | - |
| 1778085201 | 30.56° C | 53% | 1016.2 hPa | 0 mm | - | 737 W/m² | - |
| 1778084601 | 30° C | 52% | 1016.2 hPa | 0 mm | - | 705 W/m² | - |
| 1778083701 | 29.44° C | 54% | 1016.3 hPa | 0 mm | - | 838 W/m² | - |
| 1778083101 | 29.44° C | 54% | 1016.3 hPa | 0 mm | - | 773 W/m² | - |
| 1778082801 | 29.44° C | 53% | 1016.2 hPa | 0 mm | - | 807 W/m² | - |
| 1778082501 | 29.44° C | 52% | 1016.2 hPa | 0 mm | - | 761 W/m² | - |
| 1778081901 | 29.44° C | 49% | 1016.3 hPa | 0 mm | - | 722 W/m² | - |
| 1778081601 | 29.44° C | 55% | 1016.3 hPa | 0 mm | - | 761 W/m² | - |
| 1778081086 | 28.89° C | 55% | 1016.4 hPa | 0 mm | - | 791 W/m² | - |
| 1778080701 | 28.89° C | 54% | 1016.4 hPa | 0 mm | - | 731 W/m² | - |
| 1778079020 | 27.78° C | 66% | 1016.4 hPa | 0 mm | - | 719 W/m² | - |
| 1778073357 | 25° C | 78% | 1016.1 hPa | 0 mm | - | 95 W/m² | - |
| 1778072667 | 24.44° C | 80% | 1016.1 hPa | 0 mm | - | 90 W/m² | - |
| 1778072523 | 23.89° C | 81% | 1016 hPa | 0 mm | - | 81 W/m² | - |
| 1778072336 | 23.89° C | 81% | 1016 hPa | 0 mm | - | 81 W/m² | - |
| 1778071780 | 23.33° C | 83% | 1015.8 hPa | 0 mm | - | 95 W/m² | - |
| 1778071452 | 23.33° C | 83% | 1015.8 hPa | 0 mm | - | 179 W/m² | - |
* Rain latest hour (hover to see other rain measurements)
** Current wind speed in m/s (hover to see current wind gust speed)